createdAt,value
2022-12-04T00:00:58.010Z,965.62
2022-12-04T00:01:58.037Z,965.66
2022-12-04T00:02:58.980Z,965.63
2022-12-04T00:03:58.095Z,965.64
2022-12-04T00:04:58.205Z,965.64
2022-12-04T00:05:58.210Z,965.60
2022-12-04T00:06:59.125Z,965.62
2022-12-04T00:07:58.338Z,965.59
2022-12-04T00:08:58.305Z,965.58
2022-12-04T00:09:58.351Z,965.53
2022-12-04T00:10:58.405Z,965.51
2022-12-04T00:11:58.448Z,965.50
2022-12-04T00:12:58.452Z,965.51
2022-12-04T00:14:04.595Z,965.49
2022-12-04T00:15:24.723Z,965.46
2022-12-04T00:15:58.674Z,965.41
2022-12-04T00:16:58.641Z,965.44
2022-12-04T00:17:58.682Z,965.49
2022-12-04T00:18:58.690Z,965.42
2022-12-04T00:19:58.764Z,965.49
2022-12-04T00:20:58.769Z,965.47
2022-12-04T00:21:59.420Z,965.43
2022-12-04T00:22:58.859Z,965.49
2022-12-04T00:23:58.888Z,965.50
2022-12-04T00:24:58.946Z,965.58
2022-12-04T00:25:58.977Z,965.59
2022-12-04T00:26:59.036Z,965.59
2022-12-04T00:27:59.046Z,965.56
2022-12-04T00:28:59.089Z,965.52
2022-12-04T00:29:59.128Z,965.49
2022-12-04T00:30:59.165Z,965.50
2022-12-04T00:31:59.358Z,965.53
2022-12-04T00:32:59.253Z,965.57
2022-12-04T00:34:00.379Z,965.59
2022-12-04T00:34:59.322Z,965.55
2022-12-04T00:35:59.392Z,965.56
2022-12-04T00:36:59.407Z,965.61
2022-12-04T00:37:59.449Z,965.60
2022-12-04T00:38:59.508Z,965.59
2022-12-04T00:39:59.521Z,965.60
2022-12-04T00:40:59.567Z,965.55
2022-12-04T00:42:00.416Z,965.56
2022-12-04T00:42:59.639Z,965.54
2022-12-04T00:43:59.701Z,965.56
2022-12-04T00:44:59.715Z,965.58
2022-12-04T00:45:59.813Z,965.61
2022-12-04T00:46:59.821Z,965.62
2022-12-04T00:47:59.834Z,965.63
2022-12-04T00:48:59.883Z,965.71
2022-12-04T00:49:59.924Z,965.69
2022-12-04T00:50:59.960Z,965.71
2022-12-04T00:52:00.031Z,965.68
2022-12-04T00:53:00.039Z,965.66
2022-12-04T00:54:00.087Z,965.67
2022-12-04T00:55:00.133Z,965.61
2022-12-04T00:56:00.149Z,965.60
2022-12-04T00:57:00.200Z,965.55
2022-12-04T00:58:00.362Z,965.59
2022-12-04T00:59:00.294Z,965.58
2022-12-04T01:00:00.319Z,965.51
2022-12-04T01:01:00.961Z,965.54
2022-12-04T01:02:00.424Z,965.47
2022-12-04T01:03:00.524Z,965.46
2022-12-04T01:04:00.500Z,965.44
2022-12-04T01:05:00.516Z,965.42
2022-12-04T01:06:00.557Z,965.41
2022-12-04T01:07:04.984Z,965.42
2022-12-04T01:08:00.682Z,965.41
2022-12-04T01:09:00.690Z,965.42
2022-12-04T01:10:00.707Z,965.43
2022-12-04T01:11:01.424Z,965.40
2022-12-04T01:12:00.786Z,965.41
2022-12-04T01:13:00.826Z,965.40
2022-12-04T01:14:00.889Z,965.40
2022-12-04T01:15:00.913Z,965.40
2022-12-04T01:16:00.973Z,965.39
2022-12-04T01:17:01.078Z,965.38
2022-12-04T01:18:01.029Z,965.39
2022-12-04T01:19:01.067Z,965.41
2022-12-04T01:20:01.117Z,965.43
2022-12-04T01:21:01.142Z,965.44
2022-12-04T01:22:01.215Z,965.41
2022-12-04T01:23:01.224Z,965.42
2022-12-04T01:24:01.272Z,965.36
2022-12-04T01:25:01.346Z,965.36
2022-12-04T01:26:01.343Z,965.35
2022-12-04T01:27:01.386Z,965.36
2022-12-04T01:28:01.428Z,965.34
2022-12-04T01:29:01.473Z,965.31
2022-12-04T01:30:01.544Z,965.36
2022-12-04T01:31:02.423Z,965.32
2022-12-04T01:32:01.650Z,965.36
2022-12-04T01:33:01.631Z,965.36
2022-12-04T01:34:01.678Z,965.35
2022-12-04T01:35:01.739Z,965.34
2022-12-04T01:36:01.742Z,965.33
2022-12-04T01:37:01.783Z,965.38
2022-12-04T01:38:01.861Z,965.44
2022-12-04T01:39:01.872Z,965.38
2022-12-04T01:40:01.903Z,965.35
2022-12-04T01:41:02.919Z,965.33
2022-12-04T01:42:02.014Z,965.32
2022-12-04T01:43:02.025Z,965.35
2022-12-04T01:44:02.072Z,965.37
2022-12-04T01:45:02.104Z,965.36
2022-12-04T01:46:02.207Z,965.35
2022-12-04T01:47:02.221Z,965.31
2022-12-04T01:48:02.229Z,965.33
2022-12-04T01:49:02.272Z,965.34
2022-12-04T01:50:02.312Z,965.33
2022-12-04T01:51:02.346Z,965.30
2022-12-04T01:52:02.424Z,965.29
2022-12-04T01:53:02.434Z,965.27
2022-12-04T01:54:02.477Z,965.32
2022-12-04T01:55:02.512Z,965.32
2022-12-04T01:56:02.555Z,965.34
2022-12-04T01:57:02.617Z,965.28
2022-12-04T01:58:02.669Z,965.28
2022-12-04T01:59:02.670Z,965.25
2022-12-04T02:00:03.423Z,965.23
2022-12-04T02:01:08.232Z,965.19
2022-12-04T02:02:02.906Z,965.20
2022-12-04T02:03:02.941Z,965.22
2022-12-04T02:04:02.878Z,965.23
2022-12-04T02:05:02.920Z,965.28
2022-12-04T02:06:02.949Z,965.27
2022-12-04T02:07:02.999Z,965.32
2022-12-04T02:08:03.091Z,965.32
2022-12-04T02:09:03.106Z,965.29
2022-12-04T02:10:03.110Z,965.29
2022-12-04T02:11:03.151Z,965.27
2022-12-04T02:12:03.200Z,965.24
2022-12-04T02:13:03.241Z,965.27
2022-12-04T02:14:03.294Z,965.25
2022-12-04T02:15:03.322Z,965.25
2022-12-04T02:16:03.358Z,965.25
2022-12-04T02:17:03.493Z,965.25
2022-12-04T02:18:03.469Z,965.26
2022-12-04T02:19:03.477Z,965.26
2022-12-04T02:20:03.527Z,965.26
2022-12-04T02:21:03.582Z,965.22
2022-12-04T02:22:03.605Z,965.16
2022-12-04T02:23:03.639Z,965.15
2022-12-04T02:24:03.690Z,965.13
2022-12-04T02:25:03.725Z,965.12
2022-12-04T02:26:03.790Z,965.17
2022-12-04T02:27:03.833Z,965.21
2022-12-04T02:28:03.848Z,965.21
2022-12-04T02:29:03.881Z,965.23
2022-12-04T02:30:03.929Z,965.23
2022-12-04T02:31:03.986Z,965.25
2022-12-04T02:32:04.031Z,965.19
2022-12-04T02:33:04.043Z,965.21
2022-12-04T02:34:04.093Z,965.21
2022-12-04T02:35:04.134Z,965.25
2022-12-04T02:36:04.170Z,965.27
2022-12-04T02:37:04.227Z,965.32
2022-12-04T02:38:04.263Z,965.31
2022-12-04T02:39:04.930Z,965.30
2022-12-04T02:40:04.346Z,965.32
2022-12-04T02:41:04.376Z,965.31
2022-12-04T02:42:04.444Z,965.33
2022-12-04T02:43:04.445Z,965.30
2022-12-04T02:44:04.486Z,965.33
2022-12-04T02:45:04.531Z,965.34
2022-12-04T02:46:04.638Z,965.35
2022-12-04T02:47:04.634Z,965.35
2022-12-04T02:48:04.652Z,965.35
2022-12-04T02:49:05.431Z,965.37
2022-12-04T02:50:04.766Z,965.35
2022-12-04T02:51:04.779Z,965.34
2022-12-04T02:52:04.813Z,965.35
2022-12-04T02:53:04.851Z,965.37
2022-12-04T02:54:05.126Z,965.35
2022-12-04T02:55:08.339Z,965.36
2022-12-04T02:56:04.976Z,965.37
2022-12-04T02:57:05.055Z,965.35
2022-12-04T02:58:05.065Z,965.36
2022-12-04T02:59:05.099Z,965.34
2022-12-04T03:00:05.174Z,965.37
2022-12-04T03:01:05.194Z,965.38
2022-12-04T03:02:05.277Z,965.35
2022-12-04T03:03:05.266Z,965.32
2022-12-04T03:04:05.301Z,965.32
2022-12-04T03:05:05.370Z,965.36
2022-12-04T03:06:05.391Z,965.37
2022-12-04T03:07:05.929Z,965.34
2022-12-04T03:08:05.580Z,965.31
2022-12-04T03:09:05.511Z,965.29
2022-12-04T03:10:05.577Z,965.29
2022-12-04T03:11:06.422Z,965.27
2022-12-04T03:12:05.638Z,965.24
2022-12-04T03:13:05.674Z,965.25
2022-12-04T03:14:05.706Z,965.23
2022-12-04T03:15:05.785Z,965.23
2022-12-04T03:16:06.421Z,965.21
2022-12-04T03:17:05.901Z,965.24
2022-12-04T03:18:05.882Z,965.20
2022-12-04T03:19:05.922Z,965.16
2022-12-04T03:20:05.986Z,965.08
2022-12-04T03:21:06.010Z,965.06
2022-12-04T03:22:06.034Z,965.10
2022-12-04T03:23:06.087Z,965.05
2022-12-04T03:24:06.147Z,965.08
2022-12-04T03:25:06.934Z,965.07
2022-12-04T03:26:06.209Z,965.07
2022-12-04T03:27:06.246Z,965.08
2022-12-04T03:28:06.311Z,965.10
2022-12-04T03:29:06.322Z,965.10
2022-12-04T03:30:06.364Z,965.13
2022-12-04T03:31:06.499Z,965.11
2022-12-04T03:32:06.448Z,965.10
2022-12-04T03:33:06.519Z,965.06
2022-12-04T03:34:07.429Z,965.03
2022-12-04T03:35:06.591Z,965.01
2022-12-04T03:36:06.605Z,965.06
2022-12-04T03:37:06.661Z,965.04
2022-12-04T03:38:06.695Z,965.04
2022-12-04T03:39:06.730Z,965.06
2022-12-04T03:40:06.808Z,965.06
2022-12-04T03:41:06.810Z,965.09
2022-12-04T03:42:06.881Z,965.14
2022-12-04T03:43:06.892Z,965.18
2022-12-04T03:44:06.932Z,965.19
2022-12-04T03:45:07.005Z,965.19
2022-12-04T03:46:07.095Z,965.20
2022-12-04T03:47:07.082Z,965.17
2022-12-04T03:48:07.104Z,965.15
2022-12-04T03:49:07.143Z,965.14
2022-12-04T03:50:07.212Z,965.14
2022-12-04T03:51:07.219Z,965.11
2022-12-04T03:52:07.265Z,965.15
2022-12-04T03:53:07.300Z,965.12
2022-12-04T03:54:07.345Z,965.17
2022-12-04T03:55:07.414Z,965.18
2022-12-04T03:56:07.422Z,965.16
2022-12-04T03:57:07.463Z,965.18
2022-12-04T03:58:07.510Z,965.22
2022-12-04T03:59:07.582Z,965.21
2022-12-04T04:00:07.590Z,965.20
2022-12-04T04:01:08.480Z,965.21
2022-12-04T04:02:07.805Z,965.27
2022-12-04T04:03:07.863Z,965.21
2022-12-04T04:04:07.765Z,965.26
2022-12-04T04:05:07.829Z,965.29
2022-12-04T04:06:07.835Z,965.31
2022-12-04T04:07:07.872Z,965.32
2022-12-04T04:08:07.994Z,965.32
2022-12-04T04:09:07.958Z,965.29
2022-12-04T04:10:08.023Z,965.28
2022-12-04T04:11:08.041Z,965.25
2022-12-04T04:12:08.087Z,965.23
2022-12-04T04:13:08.128Z,965.23
2022-12-04T04:14:08.166Z,965.19
2022-12-04T04:15:08.226Z,965.20
2022-12-04T04:16:08.274Z,965.17
2022-12-04T04:17:08.289Z,965.12
2022-12-04T04:18:08.321Z,965.13
2022-12-04T04:19:08.371Z,965.14
2022-12-04T04:20:08.445Z,965.11
2022-12-04T04:21:08.483Z,965.08
2022-12-04T04:22:08.486Z,965.07
2022-12-04T04:23:08.533Z,965.05
2022-12-04T04:24:08.573Z,965.02
2022-12-04T04:25:08.616Z,965.03
2022-12-04T04:26:08.680Z,964.98
2022-12-04T04:27:08.717Z,965.02
2022-12-04T04:28:08.736Z,964.98
2022-12-04T04:29:08.770Z,964.99
2022-12-04T04:30:08.824Z,964.93
2022-12-04T04:31:08.898Z,964.98
2022-12-04T04:32:08.915Z,964.96
2022-12-04T04:33:08.933Z,965.03
2022-12-04T04:34:08.982Z,965.03
2022-12-04T04:35:09.023Z,965.06
2022-12-04T04:36:09.065Z,965.11
2022-12-04T04:37:09.130Z,965.13
2022-12-04T04:38:09.146Z,965.12
2022-12-04T04:39:09.178Z,965.11
2022-12-04T04:40:09.229Z,965.09
2022-12-04T04:41:09.260Z,965.11
2022-12-04T04:42:09.322Z,965.06
2022-12-04T04:43:09.377Z,965.06
2022-12-04T04:44:09.418Z,965.09
2022-12-04T04:45:09.435Z,965.06
2022-12-04T04:46:09.580Z,965.09
2022-12-04T04:47:09.503Z,965.14
2022-12-04T04:48:09.561Z,965.15
2022-12-04T04:49:09.617Z,965.14
2022-12-04T04:50:09.627Z,965.16
2022-12-04T04:51:09.677Z,965.09
2022-12-04T04:52:09.717Z,965.13
2022-12-04T04:53:09.759Z,965.19
2022-12-04T04:54:09.822Z,965.18
2022-12-04T04:55:09.849Z,965.18
2022-12-04T04:56:09.873Z,965.18
2022-12-04T04:57:09.921Z,965.11
2022-12-04T04:58:09.953Z,965.10
2022-12-04T04:59:10.028Z,965.10
2022-12-04T05:00:10.036Z,965.13
2022-12-04T05:01:10.083Z,965.10
2022-12-04T05:02:10.153Z,965.09
2022-12-04T05:03:10.331Z,965.05
2022-12-04T05:04:10.236Z,965.05
2022-12-04T05:05:10.248Z,965.06
2022-12-04T05:06:10.291Z,965.02
2022-12-04T05:07:10.334Z,965.05
2022-12-04T05:08:10.431Z,965.03
2022-12-04T05:09:10.411Z,965.04
2022-12-04T05:10:10.443Z,965.03
2022-12-04T05:11:10.518Z,965.05
2022-12-04T05:12:10.535Z,965.08
2022-12-04T05:13:10.567Z,965.09
2022-12-04T05:14:10.610Z,965.12
2022-12-04T05:15:10.672Z,965.14
2022-12-04T05:16:10.779Z,965.12
2022-12-04T05:17:12.720Z,965.10
2022-12-04T05:18:10.782Z,965.11
2022-12-04T05:19:10.848Z,965.17
2022-12-04T05:20:10.860Z,965.16
2022-12-04T05:21:10.924Z,965.14
2022-12-04T05:22:10.932Z,965.18
2022-12-04T05:23:10.983Z,965.20
2022-12-04T05:24:11.014Z,965.22
2022-12-04T05:25:11.093Z,965.25
2022-12-04T05:26:11.098Z,965.27
2022-12-04T05:27:11.163Z,965.20
2022-12-04T05:28:11.187Z,965.17
2022-12-04T05:29:11.219Z,965.10
2022-12-04T05:30:11.270Z,965.13
2022-12-04T05:31:11.376Z,965.10
2022-12-04T05:32:11.348Z,965.14
2022-12-04T05:33:11.392Z,965.18
2022-12-04T05:34:11.445Z,965.20
2022-12-04T05:35:11.870Z,965.28
2022-12-04T05:36:11.503Z,965.27
2022-12-04T05:37:12.438Z,965.32
2022-12-04T05:38:11.595Z,965.27
2022-12-04T05:39:11.625Z,965.21
2022-12-04T05:40:11.690Z,965.21
2022-12-04T05:41:11.708Z,965.20
2022-12-04T05:42:11.754Z,965.24
2022-12-04T05:43:11.801Z,965.25
2022-12-04T05:44:11.853Z,965.26
2022-12-04T05:45:11.878Z,965.26
2022-12-04T05:46:11.953Z,965.24
2022-12-04T05:47:11.987Z,965.21
2022-12-04T05:48:12.002Z,965.19
2022-12-04T05:49:12.037Z,965.17
2022-12-04T05:50:12.089Z,965.21
2022-12-04T05:51:12.118Z,965.26
2022-12-04T05:52:12.183Z,965.28
2022-12-04T05:53:12.206Z,965.28
2022-12-04T05:54:12.265Z,965.29
2022-12-04T05:55:12.281Z,965.31
2022-12-04T05:56:12.349Z,965.28
2022-12-04T05:57:12.371Z,965.29
2022-12-04T05:58:12.418Z,965.25
2022-12-04T05:59:12.451Z,965.22
2022-12-04T06:00:13.429Z,965.18
2022-12-04T06:01:12.566Z,965.16
2022-12-04T06:02:12.708Z,965.20
2022-12-04T06:03:12.655Z,965.18
2022-12-04T06:04:12.650Z,965.18
2022-12-04T06:05:12.713Z,965.16
2022-12-04T06:06:17.518Z,965.16
2022-12-04T06:07:12.773Z,965.15
2022-12-04T06:08:12.897Z,965.16
2022-12-04T06:09:12.852Z,965.12
2022-12-04T06:10:12.915Z,965.18
2022-12-04T06:11:12.944Z,965.15
2022-12-04T06:12:13.002Z,965.20
2022-12-04T06:13:13.017Z,965.18
2022-12-04T06:14:13.067Z,965.22
2022-12-04T06:15:13.124Z,965.22
2022-12-04T06:16:13.171Z,965.16
2022-12-04T06:17:13.187Z,965.20
2022-12-04T06:18:13.219Z,965.23
2022-12-04T06:19:13.269Z,965.24
2022-12-04T06:20:13.425Z,965.28
2022-12-04T06:21:13.344Z,965.31
2022-12-04T06:22:13.383Z,965.29
2022-12-04T06:23:13.434Z,965.35
2022-12-04T06:24:13.471Z,965.41
2022-12-04T06:25:13.535Z,965.41
2022-12-04T06:26:13.550Z,965.41
2022-12-04T06:27:29.120Z,965.47
2022-12-04T06:28:13.630Z,965.45
2022-12-04T06:29:13.679Z,965.47
2022-12-04T06:30:13.722Z,965.44
2022-12-04T06:31:13.848Z,965.48
2022-12-04T06:32:19.517Z,965.48
2022-12-04T06:33:13.844Z,965.51
2022-12-04T06:34:13.875Z,965.49
2022-12-04T06:35:14.437Z,965.47
2022-12-04T06:36:13.956Z,965.42
2022-12-04T06:37:14.034Z,965.40
2022-12-04T06:38:14.043Z,965.40
2022-12-04T06:39:18.513Z,965.41
2022-12-04T06:40:14.122Z,965.34
2022-12-04T06:41:14.933Z,965.36
2022-12-04T06:42:14.226Z,965.37
2022-12-04T06:43:14.249Z,965.34
2022-12-04T06:44:14.356Z,965.36
2022-12-04T06:45:14.335Z,965.36
2022-12-04T06:46:14.403Z,965.38
2022-12-04T06:47:14.419Z,965.38
2022-12-04T06:48:14.455Z,965.37
2022-12-04T06:49:14.547Z,965.38
2022-12-04T06:50:14.531Z,965.32
2022-12-04T06:51:14.605Z,965.32
2022-12-04T06:52:15.444Z,965.32
2022-12-04T06:53:14.659Z,965.32
2022-12-04T06:54:14.705Z,965.34
2022-12-04T06:55:14.768Z,965.35
2022-12-04T06:56:14.809Z,965.36
2022-12-04T06:57:14.821Z,965.39
2022-12-04T06:58:14.874Z,965.38
2022-12-04T06:59:14.909Z,965.39
2022-12-04T07:00:14.995Z,965.40
2022-12-04T07:01:15.010Z,965.39
2022-12-04T07:02:15.072Z,965.43
2022-12-04T07:03:15.064Z,965.40
2022-12-04T07:04:15.942Z,965.39
2022-12-04T07:05:15.179Z,965.40
2022-12-04T07:06:15.194Z,965.41
2022-12-04T07:07:15.232Z,965.39
2022-12-04T07:08:15.303Z,965.38
2022-12-04T07:09:15.952Z,965.37
2022-12-04T07:10:15.376Z,965.37
2022-12-04T07:11:15.413Z,965.42
2022-12-04T07:12:15.464Z,965.37
2022-12-04T07:13:15.476Z,965.41
2022-12-04T07:14:15.532Z,965.38
2022-12-04T07:15:15.560Z,965.35
2022-12-04T07:16:15.660Z,965.35
2022-12-04T07:17:15.735Z,965.30
2022-12-04T07:18:15.695Z,965.32
2022-12-04T07:19:15.741Z,965.33
2022-12-04T07:20:15.770Z,965.36
2022-12-04T07:21:16.440Z,965.35
2022-12-04T07:22:15.881Z,965.38
2022-12-04T07:23:15.898Z,965.41
2022-12-04T07:24:15.931Z,965.44
2022-12-04T07:25:15.987Z,965.48
2022-12-04T07:26:16.016Z,965.52
2022-12-04T07:27:16.087Z,965.54
2022-12-04T07:28:16.104Z,965.54
2022-12-04T07:29:16.147Z,965.54
2022-12-04T07:30:16.301Z,965.55
2022-12-04T07:31:16.232Z,965.55
2022-12-04T07:32:16.358Z,965.52
2022-12-04T07:33:16.942Z,965.54
2022-12-04T07:34:16.343Z,965.55
2022-12-04T07:35:16.423Z,965.54
2022-12-04T07:36:16.437Z,965.56
2022-12-04T07:37:16.469Z,965.56
2022-12-04T07:38:16.513Z,965.52
2022-12-04T07:39:16.551Z,965.53
2022-12-04T07:40:16.606Z,965.46
2022-12-04T07:41:16.634Z,965.48
2022-12-04T07:42:22.552Z,965.51
2022-12-04T07:43:16.723Z,965.49
2022-12-04T07:44:16.757Z,965.52
2022-12-04T07:45:16.791Z,965.55
2022-12-04T07:46:16.918Z,965.58
2022-12-04T07:47:16.905Z,965.53
2022-12-04T07:48:16.929Z,965.48
2022-12-04T07:49:16.959Z,965.45
2022-12-04T07:50:17.011Z,965.44
2022-12-04T07:51:17.034Z,965.41
2022-12-04T07:52:17.111Z,965.43
2022-12-04T07:53:17.126Z,965.45
2022-12-04T07:54:17.190Z,965.47
2022-12-04T07:55:22.811Z,965.45
2022-12-04T07:56:17.249Z,965.45
2022-12-04T07:57:17.284Z,965.47
2022-12-04T07:58:17.318Z,965.47
2022-12-04T07:59:17.392Z,965.49
2022-12-04T08:00:17.410Z,965.52
2022-12-04T08:01:17.528Z,965.52
2022-12-04T08:02:18.443Z,965.54
2022-12-04T08:03:17.529Z,965.57
2022-12-04T08:04:17.621Z,965.56
2022-12-04T08:05:17.610Z,965.55
2022-12-04T08:06:17.661Z,965.54
2022-12-04T08:07:17.690Z,965.53
2022-12-04T08:08:18.550Z,965.55
2022-12-04T08:09:17.796Z,965.55
2022-12-04T08:10:17.806Z,965.61
2022-12-04T08:11:17.857Z,965.64
2022-12-04T08:12:17.920Z,965.71
2022-12-04T08:13:17.930Z,965.70
2022-12-04T08:14:17.981Z,965.74
2022-12-04T08:15:18.011Z,965.72
2022-12-04T08:16:18.113Z,965.73
2022-12-04T08:17:18.154Z,965.73
2022-12-04T08:18:18.155Z,965.74
2022-12-04T08:19:18.179Z,965.75
2022-12-04T08:20:18.251Z,965.73
2022-12-04T08:21:18.257Z,965.73
2022-12-04T08:22:23.439Z,965.76
2022-12-04T08:23:18.347Z,965.75
2022-12-04T08:24:18.377Z,965.77
2022-12-04T08:25:18.458Z,965.83
2022-12-04T08:26:18.466Z,965.78
2022-12-04T08:27:18.510Z,965.76
2022-12-04T08:28:18.542Z,965.79
2022-12-04T08:29:18.588Z,965.77
2022-12-04T08:30:18.657Z,965.76
2022-12-04T08:31:19.608Z,965.74
2022-12-04T08:32:18.708Z,965.80
2022-12-04T08:33:18.753Z,965.81
2022-12-04T08:34:18.784Z,965.81
2022-12-04T08:35:18.860Z,965.80
2022-12-04T08:36:18.874Z,965.82
2022-12-04T08:37:19.449Z,965.82
2022-12-04T08:38:18.950Z,965.81
2022-12-04T08:39:18.991Z,965.75
2022-12-04T08:40:19.064Z,965.67
2022-12-04T08:41:20.134Z,965.66
2022-12-04T08:42:19.117Z,965.67
2022-12-04T08:43:19.947Z,965.67
2022-12-04T08:44:19.199Z,965.72
2022-12-04T08:45:19.260Z,965.73
2022-12-04T08:46:19.309Z,965.72
2022-12-04T08:47:19.320Z,965.73
2022-12-04T08:48:19.362Z,965.70
2022-12-04T08:49:19.569Z,965.68
2022-12-04T08:50:19.446Z,965.66
2022-12-04T08:51:19.497Z,965.66
2022-12-04T08:52:19.572Z,965.65
2022-12-04T08:53:19.573Z,965.67
2022-12-04T08:54:19.611Z,965.67
2022-12-04T08:55:19.669Z,965.73
2022-12-04T08:56:19.691Z,965.73
2022-12-04T08:57:19.733Z,965.63
2022-12-04T08:58:20.449Z,965.67
2022-12-04T08:59:19.844Z,965.67
2022-12-04T09:00:19.858Z,965.68
2022-12-04T09:01:19.964Z,965.70
2022-12-04T09:02:19.933Z,965.73
2022-12-04T09:03:21.057Z,965.74
2022-12-04T09:04:20.123Z,965.76
2022-12-04T09:05:20.054Z,965.74
2022-12-04T09:06:20.949Z,965.71
2022-12-04T09:07:20.133Z,965.76
2022-12-04T09:08:20.208Z,965.75
2022-12-04T09:09:20.244Z,965.76
2022-12-04T09:10:20.268Z,965.71
2022-12-04T09:11:20.305Z,965.70
2022-12-04T09:12:20.401Z,965.73
2022-12-04T09:13:20.421Z,965.77
2022-12-04T09:14:20.480Z,965.80
2022-12-04T09:15:20.472Z,965.84
2022-12-04T09:16:20.569Z,965.92
2022-12-04T09:17:20.565Z,965.94
2022-12-04T09:18:20.602Z,965.92
2022-12-04T09:19:20.688Z,965.86
2022-12-04T09:20:20.686Z,965.73
2022-12-04T09:21:21.462Z,965.64
2022-12-04T09:22:20.779Z,965.65
2022-12-04T09:23:21.458Z,965.74
2022-12-04T09:24:20.977Z,965.83
2022-12-04T09:25:20.897Z,965.91
2022-12-04T09:26:20.926Z,965.91
2022-12-04T09:27:20.955Z,965.77
2022-12-04T09:28:20.996Z,965.71
2022-12-04T09:29:21.061Z,965.61
2022-12-04T09:30:21.107Z,965.57
2022-12-04T09:31:21.245Z,965.55
2022-12-04T09:32:21.175Z,965.60
2022-12-04T09:33:21.207Z,965.61
2022-12-04T09:34:21.254Z,965.64
2022-12-04T09:35:21.296Z,965.61
2022-12-04T09:36:21.369Z,965.71
2022-12-04T09:37:21.366Z,965.77
2022-12-04T09:38:21.415Z,965.85
2022-12-04T09:39:21.460Z,965.85
2022-12-04T09:40:21.484Z,965.84
2022-12-04T09:41:21.557Z,965.85
2022-12-04T09:42:21.583Z,965.77
2022-12-04T09:43:21.628Z,965.71
2022-12-04T09:44:21.653Z,965.71
2022-12-04T09:45:21.702Z,965.75
2022-12-04T09:46:21.818Z,965.77
2022-12-04T09:47:21.817Z,965.82
2022-12-04T09:48:21.830Z,965.85
2022-12-04T09:49:21.856Z,965.86
2022-12-04T09:50:21.919Z,965.89
2022-12-04T09:51:21.972Z,965.84
2022-12-04T09:52:22.246Z,965.83
2022-12-04T09:53:22.034Z,965.78
2022-12-04T09:54:22.066Z,965.79
2022-12-04T09:55:22.114Z,965.79
2022-12-04T09:56:22.183Z,965.81
2022-12-04T09:57:22.193Z,965.81
2022-12-04T09:58:22.266Z,965.82
2022-12-04T09:59:22.293Z,965.74
2022-12-04T10:00:22.316Z,965.71
2022-12-04T10:01:22.399Z,965.64
2022-12-04T10:02:22.521Z,965.66
2022-12-04T10:03:22.687Z,965.61
2022-12-04T10:04:22.564Z,965.64
2022-12-04T10:05:22.529Z,965.63
2022-12-04T10:06:22.569Z,965.64
2022-12-04T10:07:22.619Z,965.66
2022-12-04T10:08:22.766Z,965.66
2022-12-04T10:09:22.705Z,965.65
2022-12-04T10:10:22.757Z,965.66
2022-12-04T10:11:23.956Z,965.65
2022-12-04T10:12:22.816Z,965.63
2022-12-04T10:13:22.882Z,965.62
2022-12-04T10:14:22.890Z,965.63
2022-12-04T10:15:22.947Z,965.67
2022-12-04T10:16:23.012Z,965.74
2022-12-04T10:17:25.485Z,965.69
2022-12-04T10:18:23.077Z,965.70
2022-12-04T10:19:23.098Z,965.61
2022-12-04T10:20:23.197Z,965.59
2022-12-04T10:21:23.211Z,965.58
2022-12-04T10:22:23.248Z,965.55
2022-12-04T10:23:23.269Z,965.55
2022-12-04T10:24:23.327Z,965.47
2022-12-04T10:25:23.359Z,965.47
2022-12-04T10:26:23.418Z,965.43
2022-12-04T10:27:23.441Z,965.43
2022-12-04T10:28:23.478Z,965.42
2022-12-04T10:29:23.527Z,965.36
2022-12-04T10:30:23.677Z,965.34
2022-12-04T10:31:23.695Z,965.29
2022-12-04T10:32:23.639Z,965.29
2022-12-04T10:33:23.690Z,965.29
2022-12-04T10:34:23.720Z,965.32
2022-12-04T10:35:23.775Z,965.29
2022-12-04T10:36:23.824Z,965.33
2022-12-04T10:37:23.877Z,965.32
2022-12-04T10:38:23.894Z,965.36
2022-12-04T10:39:23.964Z,965.37
2022-12-04T10:40:23.981Z,965.42
2022-12-04T10:41:24.015Z,965.38
2022-12-04T10:42:24.088Z,965.35
2022-12-04T10:43:24.957Z,965.37
2022-12-04T10:44:24.145Z,965.37
2022-12-04T10:45:24.217Z,965.36
2022-12-04T10:46:24.297Z,965.33
2022-12-04T10:47:24.277Z,965.23
2022-12-04T10:48:24.316Z,965.24
2022-12-04T10:49:24.354Z,965.19
2022-12-04T10:50:24.416Z,965.17
2022-12-04T10:51:24.457Z,965.20
2022-12-04T10:52:24.485Z,965.18
2022-12-04T10:53:24.533Z,965.21
2022-12-04T10:54:24.570Z,965.20
2022-12-04T10:55:24.625Z,965.19
2022-12-04T10:56:24.659Z,965.21
2022-12-04T10:57:24.694Z,965.20
2022-12-04T10:58:24.734Z,965.23
2022-12-04T10:59:24.797Z,965.22
2022-12-04T11:00:24.830Z,965.17
2022-12-04T11:01:24.950Z,965.10
2022-12-04T11:02:24.964Z,965.05
2022-12-04T11:03:25.034Z,965.05
2022-12-04T11:04:24.988Z,964.99
2022-12-04T11:05:25.040Z,965.00
2022-12-04T11:06:25.093Z,965.03
2022-12-04T11:07:25.111Z,965.02
2022-12-04T11:08:25.218Z,965.01
2022-12-04T11:09:25.199Z,964.95
2022-12-04T11:10:25.240Z,964.88
2022-12-04T11:11:25.308Z,964.85
2022-12-04T11:12:25.322Z,964.81
2022-12-04T11:13:25.368Z,964.83
2022-12-04T11:14:25.966Z,964.88
2022-12-04T11:15:25.436Z,964.93
2022-12-04T11:16:25.553Z,965.01
2022-12-04T11:17:25.526Z,965.09
2022-12-04T11:18:25.566Z,965.10
2022-12-04T11:19:25.613Z,965.07
2022-12-04T11:20:25.674Z,965.02
2022-12-04T11:21:25.694Z,964.99
2022-12-04T11:22:25.741Z,965.02
2022-12-04T11:23:25.804Z,965.08
2022-12-04T11:24:25.816Z,965.12
2022-12-04T11:25:25.866Z,965.15
2022-12-04T11:26:25.893Z,965.21
2022-12-04T11:27:25.934Z,965.21
2022-12-04T11:28:41.211Z,965.19
2022-12-04T11:29:26.019Z,965.16
2022-12-04T11:30:26.092Z,965.16
2022-12-04T11:31:26.193Z,965.12
2022-12-04T11:32:26.154Z,965.13
2022-12-04T11:33:26.192Z,965.15
2022-12-04T11:34:26.236Z,965.18
2022-12-04T11:35:26.302Z,965.25
2022-12-04T11:36:26.322Z,965.27
2022-12-04T11:37:26.365Z,965.23
2022-12-04T11:38:26.399Z,965.24
2022-12-04T11:39:26.468Z,965.16
2022-12-04T11:40:26.479Z,965.16
2022-12-04T11:41:26.556Z,965.16
2022-12-04T11:42:26.574Z,965.14
2022-12-04T11:43:26.608Z,965.18
2022-12-04T11:44:26.651Z,965.17
2022-12-04T11:45:27.469Z,965.11
2022-12-04T11:46:26.840Z,965.08
2022-12-04T11:47:26.787Z,965.03
2022-12-04T11:48:26.832Z,965.05
2022-12-04T11:49:26.892Z,965.09
2022-12-04T11:50:26.896Z,965.05
2022-12-04T11:51:26.969Z,965.01
2022-12-04T11:52:27.074Z,964.98
2022-12-04T11:53:27.019Z,964.93
2022-12-04T11:54:27.055Z,964.92
2022-12-04T11:55:29.211Z,964.86
2022-12-04T11:56:27.190Z,964.83
2022-12-04T11:57:27.219Z,964.81
2022-12-04T11:58:27.237Z,964.80
2022-12-04T11:59:27.270Z,964.77
2022-12-04T12:00:27.304Z,964.73
2022-12-04T12:01:27.377Z,964.70
2022-12-04T12:02:27.506Z,964.78
2022-12-04T12:03:27.611Z,964.82
2022-12-04T12:04:27.509Z,964.92
2022-12-04T12:05:28.460Z,964.92
2022-12-04T12:06:27.550Z,964.94
2022-12-04T12:07:27.637Z,964.89
2022-12-04T12:08:27.645Z,964.87
2022-12-04T12:09:27.705Z,964.85
2022-12-04T12:10:27.731Z,964.85
2022-12-04T12:11:27.764Z,964.82
2022-12-04T12:12:27.811Z,964.77
2022-12-04T12:13:27.877Z,964.80
2022-12-04T12:14:27.947Z,964.81
2022-12-04T12:15:28.478Z,964.86
2022-12-04T12:16:28.050Z,964.92
2022-12-04T12:26:56.548Z,964.93
2022-12-04T12:27:57.179Z,964.91
2022-12-04T12:28:56.568Z,964.91
2022-12-04T12:29:56.726Z,964.89
2022-12-04T12:30:59.010Z,964.97
2022-12-04T12:31:56.793Z,964.96
2022-12-04T12:33:03.787Z,964.91
2022-12-04T12:33:57.674Z,964.87
2022-12-04T12:34:57.680Z,964.87
2022-12-04T12:35:56.857Z,964.88
2022-12-04T12:37:00.924Z,964.89
2022-12-04T12:37:56.931Z,964.83
2022-12-04T12:38:56.969Z,964.83